sensor_id;sensor_type;location;lat;lon;timestamp;temperature;humidity
27164;DHT22;14685;50.618;7.024;2023-06-14T00:00:19;21.20;91.70
27164;DHT22;14685;50.618;7.024;2023-06-14T00:02:47;21.20;91.80
27164;DHT22;14685;50.618;7.024;2023-06-14T00:07:42;21.10;91.80
27164;DHT22;14685;50.618;7.024;2023-06-14T00:10:13;21.10;92.20
27164;DHT22;14685;50.618;7.024;2023-06-14T00:12:41;21.10;92.00
27164;DHT22;14685;50.618;7.024;2023-06-14T00:15:09;21.00;92.00
27164;DHT22;14685;50.618;7.024;2023-06-14T00:17:37;21.00;92.00
27164;DHT22;14685;50.618;7.024;2023-06-14T00:22:33;20.90;91.50
27164;DHT22;14685;50.618;7.024;2023-06-14T00:25:00;20.90;91.90
27164;DHT22;14685;50.618;7.024;2023-06-14T00:27:47;20.90;91.90
27164;DHT22;14685;50.618;7.024;2023-06-14T00:30:16;20.80;91.90
27164;DHT22;14685;50.618;7.024;2023-06-14T00:32:44;20.80;92.00
27164;DHT22;14685;50.618;7.024;2023-06-14T00:35:12;20.80;92.10
27164;DHT22;14685;50.618;7.024;2023-06-14T00:37:39;20.80;92.10
27164;DHT22;14685;50.618;7.024;2023-06-14T00:40:07;20.80;92.20
27164;DHT22;14685;50.618;7.024;2023-06-14T00:42:34;20.80;92.20
27164;DHT22;14685;50.618;7.024;2023-06-14T00:45:02;20.80;92.10
27164;DHT22;14685;50.618;7.024;2023-06-14T00:47:29;20.80;92.10
27164;DHT22;14685;50.618;7.024;2023-06-14T00:49:56;20.80;91.90
27164;DHT22;14685;50.618;7.024;2023-06-14T00:52:23;20.70;91.80
27164;DHT22;14685;50.618;7.024;2023-06-14T00:54:51;20.70;92.00
27164;DHT22;14685;50.618;7.024;2023-06-14T00:57:18;20.80;91.70
27164;DHT22;14685;50.618;7.024;2023-06-14T00:59:47;20.70;91.90
27164;DHT22;14685;50.618;7.024;2023-06-14T01:02:15;20.70;91.90
27164;DHT22;14685;50.618;7.024;2023-06-14T01:04:46;20.70;91.80
27164;DHT22;14685;50.618;7.024;2023-06-14T01:07:31;20.70;92.10
27164;DHT22;14685;50.618;7.024;2023-06-14T01:15:31;20.50;92.60
27164;DHT22;14685;50.618;7.024;2023-06-14T01:17:58;20.40;92.90
27164;DHT22;14685;50.618;7.024;2023-06-14T01:20:32;20.40;92.90
27164;DHT22;14685;50.618;7.024;2023-06-14T01:23:00;20.30;92.90
27164;DHT22;14685;50.618;7.024;2023-06-14T01:25:29;20.20;93.00
27164;DHT22;14685;50.618;7.024;2023-06-14T01:27:59;20.10;93.20
27164;DHT22;14685;50.618;7.024;2023-06-14T01:30:27;20.00;93.30
27164;DHT22;14685;50.618;7.024;2023-06-14T01:32:56;19.90;93.30
27164;DHT22;14685;50.618;7.024;2023-06-14T01:35:25;19.80;93.60
27164;DHT22;14685;50.618;7.024;2023-06-14T01:40:21;19.80;93.40
27164;DHT22;14685;50.618;7.024;2023-06-14T01:42:50;19.80;93.50
27164;DHT22;14685;50.618;7.024;2023-06-14T01:45:18;19.70;93.60
27164;DHT22;14685;50.618;7.024;2023-06-14T01:47:46;19.70;93.60
27164;DHT22;14685;50.618;7.024;2023-06-14T01:50:13;19.60;93.70
27164;DHT22;14685;50.618;7.024;2023-06-14T01:52:42;19.70;93.80
27164;DHT22;14685;50.618;7.024;2023-06-14T01:55:09;20.50;94.20
27164;DHT22;14685;50.618;7.024;2023-06-14T01:57:36;19.60;93.90
27164;DHT22;14685;50.618;7.024;2023-06-14T02:00:04;19.60;94.00
27164;DHT22;14685;50.618;7.024;2023-06-14T02:02:34;19.70;94.20
27164;DHT22;14685;50.618;7.024;2023-06-14T02:05:03;19.60;94.00
27164;DHT22;14685;50.618;7.024;2023-06-14T02:07:30;19.50;94.00
27164;DHT22;14685;50.618;7.024;2023-06-14T02:10:00;19.50;94.00
27164;DHT22;14685;50.618;7.024;2023-06-14T02:12:27;19.60;94.10
27164;DHT22;14685;50.618;7.024;2023-06-14T02:14:55;19.40;94.30
27164;DHT22;14685;50.618;7.024;2023-06-14T02:17:23;19.40;94.10
27164;DHT22;14685;50.618;7.024;2023-06-14T02:19:50;19.40;94.20
27164;DHT22;14685;50.618;7.024;2023-06-14T02:22:20;19.40;94.40
27164;DHT22;14685;50.618;7.024;2023-06-14T02:24:48;19.30;94.50
27164;DHT22;14685;50.618;7.024;2023-06-14T02:27:27;19.30;94.60
27164;DHT22;14685;50.618;7.024;2023-06-14T02:29:53;19.30;94.40
27164;DHT22;14685;50.618;7.024;2023-06-14T02:32:23;19.20;94.40
27164;DHT22;14685;50.618;7.024;2023-06-14T02:34:50;19.20;94.50
27164;DHT22;14685;50.618;7.024;2023-06-14T02:37:17;19.20;94.50
27164;DHT22;14685;50.618;7.024;2023-06-14T02:39:44;19.10;94.60
27164;DHT22;14685;50.618;7.024;2023-06-14T02:42:11;19.10;94.60
27164;DHT22;14685;50.618;7.024;2023-06-14T02:44:39;19.10;94.60
27164;DHT22;14685;50.618;7.024;2023-06-14T02:47:06;19.10;94.70
27164;DHT22;14685;50.618;7.024;2023-06-14T02:49:33;19.10;94.80
27164;DHT22;14685;50.618;7.024;2023-06-14T02:52:01;19.00;94.90
27164;DHT22;14685;50.618;7.024;2023-06-14T02:54:29;19.10;95.10
27164;DHT22;14685;50.618;7.024;2023-06-14T02:56:57;19.00;94.90
27164;DHT22;14685;50.618;7.024;2023-06-14T02:59:24;19.00;94.90
27164;DHT22;14685;50.618;7.024;2023-06-14T03:01:51;19.00;94.90
27164;DHT22;14685;50.618;7.024;2023-06-14T03:04:20;18.90;94.90
27164;DHT22;14685;50.618;7.024;2023-06-14T03:06:47;18.80;95.00
27164;DHT22;14685;50.618;7.024;2023-06-14T03:09:17;18.80;94.90
27164;DHT22;14685;50.618;7.024;2023-06-14T03:11:43;18.80;94.80
27164;DHT22;14685;50.618;7.024;2023-06-14T03:14:11;18.80;94.90
27164;DHT22;14685;50.618;7.024;2023-06-14T03:16:38;18.70;94.90
27164;DHT22;14685;50.618;7.024;2023-06-14T03:19:05;18.70;94.90
27164;DHT22;14685;50.618;7.024;2023-06-14T03:21:32;18.70;95.00
27164;DHT22;14685;50.618;7.024;2023-06-14T03:23:59;18.60;95.10
27164;DHT22;14685;50.618;7.024;2023-06-14T03:26:28;18.60;95.20
27164;DHT22;14685;50.618;7.024;2023-06-14T03:28:56;18.60;95.20
27164;DHT22;14685;50.618;7.024;2023-06-14T03:31:25;18.60;95.20
27164;DHT22;14685;50.618;7.024;2023-06-14T03:33:53;18.60;95.30
27164;DHT22;14685;50.618;7.024;2023-06-14T03:36:19;18.50;95.40
27164;DHT22;14685;50.618;7.024;2023-06-14T03:38:46;18.50;95.50
27164;DHT22;14685;50.618;7.024;2023-06-14T03:41:14;18.50;95.50
27164;DHT22;14685;50.618;7.024;2023-06-14T03:43:41;18.40;95.40
27164;DHT22;14685;50.618;7.024;2023-06-14T03:46:08;18.40;95.60
27164;DHT22;14685;50.618;7.024;2023-06-14T03:48:37;18.40;95.50
27164;DHT22;14685;50.618;7.024;2023-06-14T03:51:03;18.40;95.60
27164;DHT22;14685;50.618;7.024;2023-06-14T03:53:31;18.40;95.50
27164;DHT22;14685;50.618;7.024;2023-06-14T03:55:57;18.30;95.90
27164;DHT22;14685;50.618;7.024;2023-06-14T03:58:26;18.30;95.50
27164;DHT22;14685;50.618;7.024;2023-06-14T04:00:55;18.30;95.50
27164;DHT22;14685;50.618;7.024;2023-06-14T04:03:23;18.30;95.60
27164;DHT22;14685;50.618;7.024;2023-06-14T04:05:51;18.20;95.70
27164;DHT22;14685;50.618;7.024;2023-06-14T04:08:23;18.20;95.80
27164;DHT22;14685;50.618;7.024;2023-06-14T04:10:51;18.20;95.80
27164;DHT22;14685;50.618;7.024;2023-06-14T04:13:18;18.20;95.90
27164;DHT22;14685;50.618;7.024;2023-06-14T04:15:45;18.20;95.90
27164;DHT22;14685;50.618;7.024;2023-06-14T04:18:12;18.20;95.90
27164;DHT22;14685;50.618;7.024;2023-06-14T04:20:39;18.10;95.90
27164;DHT22;14685;50.618;7.024;2023-06-14T04:23:14;18.10;96.00
27164;DHT22;14685;50.618;7.024;2023-06-14T04:25:41;18.10;96.10
27164;DHT22;14685;50.618;7.024;2023-06-14T04:28:12;18.10;96.30
27164;DHT22;14685;50.618;7.024;2023-06-14T04:30:41;18.10;96.20
27164;DHT22;14685;50.618;7.024;2023-06-14T04:33:08;18.00;96.10
27164;DHT22;14685;50.618;7.024;2023-06-14T04:35:36;18.10;96.20
27164;DHT22;14685;50.618;7.024;2023-06-14T04:38:04;18.00;96.00
27164;DHT22;14685;50.618;7.024;2023-06-14T04:40:32;18.00;96.40
27164;DHT22;14685;50.618;7.024;2023-06-14T04:43:00;18.00;96.60
27164;DHT22;14685;50.618;7.024;2023-06-14T04:45:27;18.10;96.50
27164;DHT22;14685;50.618;7.024;2023-06-14T04:47:59;18.10;96.60
27164;DHT22;14685;50.618;7.024;2023-06-14T04:50:26;18.20;96.40
27164;DHT22;14685;50.618;7.024;2023-06-14T04:52:53;18.20;96.30
27164;DHT22;14685;50.618;7.024;2023-06-14T04:55:21;18.20;96.20
27164;DHT22;14685;50.618;7.024;2023-06-14T04:57:49;18.30;96.10
27164;DHT22;14685;50.618;7.024;2023-06-14T05:00:20;18.40;96.00
27164;DHT22;14685;50.618;7.024;2023-06-14T05:02:47;18.40;96.10
27164;DHT22;14685;50.618;7.024;2023-06-14T05:05:15;18.40;96.30
27164;DHT22;14685;50.618;7.024;2023-06-14T05:07:44;18.50;96.50
27164;DHT22;14685;50.618;7.024;2023-06-14T05:10:11;18.60;96.30
27164;DHT22;14685;50.618;7.024;2023-06-14T05:12:40;18.70;96.20
27164;DHT22;14685;50.618;7.024;2023-06-14T05:15:08;18.80;96.10
27164;DHT22;14685;50.618;7.024;2023-06-14T05:17:38;18.80;96.00
27164;DHT22;14685;50.618;7.024;2023-06-14T05:20:08;18.90;96.00
27164;DHT22;14685;50.618;7.024;2023-06-14T05:22:38;19.10;96.40
27164;DHT22;14685;50.618;7.024;2023-06-14T05:25:06;19.20;96.00
27164;DHT22;14685;50.618;7.024;2023-06-14T05:27:34;19.30;95.90
27164;DHT22;14685;50.618;7.024;2023-06-14T05:30:04;19.50;96.10
27164;DHT22;14685;50.618;7.024;2023-06-14T05:32:31;19.60;95.70
27164;DHT22;14685;50.618;7.024;2023-06-14T05:34:59;19.80;95.30
27164;DHT22;14685;50.618;7.024;2023-06-14T05:37:27;19.90;95.20
27164;DHT22;14685;50.618;7.024;2023-06-14T05:39:54;20.10;94.50
27164;DHT22;14685;50.618;7.024;2023-06-14T05:42:21;20.20;94.20
27164;DHT22;14685;50.618;7.024;2023-06-14T05:44:48;20.30;93.90
27164;DHT22;14685;50.618;7.024;2023-06-14T05:47:16;20.40;94.10
27164;DHT22;14685;50.618;7.024;2023-06-14T05:49:43;20.60;94.10
27164;DHT22;14685;50.618;7.024;2023-06-14T05:52:11;20.70;93.60
27164;DHT22;14685;50.618;7.024;2023-06-14T05:54:40;20.80;93.60
27164;DHT22;14685;50.618;7.024;2023-06-14T05:59:35;21.10;93.20
27164;DHT22;14685;50.618;7.024;2023-06-14T06:02:03;21.20;93.10
27164;DHT22;14685;50.618;7.024;2023-06-14T06:04:30;21.40;93.20
27164;DHT22;14685;50.618;7.024;2023-06-14T06:06:58;21.60;93.00
27164;DHT22;14685;50.618;7.024;2023-06-14T06:09:25;21.60;93.20
27164;DHT22;14685;50.618;7.024;2023-06-14T06:14:20;21.80;92.40
27164;DHT22;14685;50.618;7.024;2023-06-14T06:16:48;22.00;93.90
27164;DHT22;14685;50.618;7.024;2023-06-14T06:19:15;22.00;91.40
27164;DHT22;14685;50.618;7.024;2023-06-14T06:24:09;22.30;91.00
27164;DHT22;14685;50.618;7.024;2023-06-14T06:26:36;22.30;90.90
27164;DHT22;14685;50.618;7.024;2023-06-14T06:29:03;22.40;90.80
27164;DHT22;14685;50.618;7.024;2023-06-14T06:31:30;22.50;90.30
27164;DHT22;14685;50.618;7.024;2023-06-14T06:33:57;22.60;90.80
27164;DHT22;14685;50.618;7.024;2023-06-14T06:36:24;22.80;89.20
27164;DHT22;14685;50.618;7.024;2023-06-14T06:38:51;22.80;88.20
27164;DHT22;14685;50.618;7.024;2023-06-14T06:41:18;22.90;87.10
27164;DHT22;14685;50.618;7.024;2023-06-14T06:43:45;23.00;87.40
27164;DHT22;14685;50.618;7.024;2023-06-14T06:46:14;23.30;89.00
27164;DHT22;14685;50.618;7.024;2023-06-14T06:48:41;22.90;86.50
27164;DHT22;14685;50.618;7.024;2023-06-14T06:51:07;23.30;84.60
27164;DHT22;14685;50.618;7.024;2023-06-14T06:53:34;23.50;85.10
27164;DHT22;14685;50.618;7.024;2023-06-14T06:56:10;23.60;85.70
27164;DHT22;14685;50.618;7.024;2023-06-14T06:58:38;23.80;83.60
27164;DHT22;14685;50.618;7.024;2023-06-14T07:01:05;23.90;83.90
27164;DHT22;14685;50.618;7.024;2023-06-14T07:03:31;24.00;83.00
27164;DHT22;14685;50.618;7.024;2023-06-14T07:06:00;24.10;82.70
27164;DHT22;14685;50.618;7.024;2023-06-14T07:08:29;24.20;83.20
27164;DHT22;14685;50.618;7.024;2023-06-14T07:10:56;24.20;82.60
27164;DHT22;14685;50.618;7.024;2023-06-14T07:13:24;24.20;81.80
27164;DHT22;14685;50.618;7.024;2023-06-14T07:15:54;24.30;82.30
27164;DHT22;14685;50.618;7.024;2023-06-14T07:18:22;24.40;83.30
27164;DHT22;14685;50.618;7.024;2023-06-14T07:23:16;24.60;81.60
27164;DHT22;14685;50.618;7.024;2023-06-14T07:25:44;24.70;81.90
27164;DHT22;14685;50.618;7.024;2023-06-14T07:28:11;24.90;82.20
27164;DHT22;14685;50.618;7.024;2023-06-14T07:30:38;25.10;81.00
27164;DHT22;14685;50.618;7.024;2023-06-14T07:33:05;25.20;81.70
27164;DHT22;14685;50.618;7.024;2023-06-14T07:38:00;25.60;79.80
27164;DHT22;14685;50.618;7.024;2023-06-14T07:40:28;25.90;80.20
27164;DHT22;14685;50.618;7.024;2023-06-14T07:42:55;26.00;80.20
27164;DHT22;14685;50.618;7.024;2023-06-14T07:45:22;26.10;78.90
27164;DHT22;14685;50.618;7.024;2023-06-14T07:47:49;26.20;78.90
27164;DHT22;14685;50.618;7.024;2023-06-14T07:50:16;26.20;78.90
27164;DHT22;14685;50.618;7.024;2023-06-14T07:52:44;26.20;78.00
27164;DHT22;14685;50.618;7.024;2023-06-14T07:55:11;26.30;79.40
27164;DHT22;14685;50.618;7.024;2023-06-14T07:57:38;26.50;78.90
27164;DHT22;14685;50.618;7.024;2023-06-14T08:00:06;26.60;77.10
27164;DHT22;14685;50.618;7.024;2023-06-14T08:02:34;26.70;77.90
27164;DHT22;14685;50.618;7.024;2023-06-14T08:05:03;26.80;77.10
27164;DHT22;14685;50.618;7.024;2023-06-14T08:07:32;26.90;76.90
27164;DHT22;14685;50.618;7.024;2023-06-14T08:09:59;27.10;76.50
27164;DHT22;14685;50.618;7.024;2023-06-14T08:12:26;27.30;76.80
27164;DHT22;14685;50.618;7.024;2023-06-14T08:14:53;27.40;75.90
27164;DHT22;14685;50.618;7.024;2023-06-14T08:17:41;27.40;75.90
27164;DHT22;14685;50.618;7.024;2023-06-14T08:20:09;27.50;75.10
27164;DHT22;14685;50.618;7.024;2023-06-14T08:22:37;27.70;75.80
27164;DHT22;14685;50.618;7.024;2023-06-14T08:25:07;27.90;74.90
27164;DHT22;14685;50.618;7.024;2023-06-14T08:27:35;28.00;74.20
27164;DHT22;14685;50.618;7.024;2023-06-14T08:30:03;28.00;72.50
27164;DHT22;14685;50.618;7.024;2023-06-14T08:34:57;28.30;71.50
27164;DHT22;14685;50.618;7.024;2023-06-14T08:37:32;28.50;72.60
27164;DHT22;14685;50.618;7.024;2023-06-14T08:40:00;28.50;71.60
27164;DHT22;14685;50.618;7.024;2023-06-14T08:42:30;28.40;71.10
27164;DHT22;14685;50.618;7.024;2023-06-14T08:44:58;28.60;71.80
27164;DHT22;14685;50.618;7.024;2023-06-14T08:47:29;28.70;70.90
27164;DHT22;14685;50.618;7.024;2023-06-14T08:52:55;29.00;70.10
27164;DHT22;14685;50.618;7.024;2023-06-14T08:55:24;29.10;70.00
27164;DHT22;14685;50.618;7.024;2023-06-14T08:57:55;29.10;69.60
27164;DHT22;14685;50.618;7.024;2023-06-14T09:00:23;29.00;69.40
27164;DHT22;14685;50.618;7.024;2023-06-14T09:02:55;29.00;68.80
27164;DHT22;14685;50.618;7.024;2023-06-14T09:05:26;29.00;68.00
27164;DHT22;14685;50.618;7.024;2023-06-14T09:07:53;28.80;66.60
27164;DHT22;14685;50.618;7.024;2023-06-14T09:10:32;28.80;67.40
27164;DHT22;14685;50.618;7.024;2023-06-14T09:13:03;28.90;66.60
27164;DHT22;14685;50.618;7.024;2023-06-14T09:15:31;29.00;67.70
27164;DHT22;14685;50.618;7.024;2023-06-14T09:18:01;29.00;65.80
27164;DHT22;14685;50.618;7.024;2023-06-14T09:20:30;29.00;65.90
27164;DHT22;14685;50.618;7.024;2023-06-14T09:22:58;29.20;67.20
27164;DHT22;14685;50.618;7.024;2023-06-14T09:25:24;29.10;65.30
27164;DHT22;14685;50.618;7.024;2023-06-14T09:28:08;29.20;66.80
27164;DHT22;14685;50.618;7.024;2023-06-14T09:30:40;29.40;67.90
27164;DHT22;14685;50.618;7.024;2023-06-14T09:33:09;29.40;66.40
27164;DHT22;14685;50.618;7.024;2023-06-14T09:35:38;29.50;66.90
27164;DHT22;14685;50.618;7.024;2023-06-14T09:38:05;29.50;67.20
27164;DHT22;14685;50.618;7.024;2023-06-14T09:40:34;29.50;65.20
27164;DHT22;14685;50.618;7.024;2023-06-14T09:43:05;29.60;67.60
27164;DHT22;14685;50.618;7.024;2023-06-14T09:45:33;29.60;65.60
27164;DHT22;14685;50.618;7.024;2023-06-14T09:48:01;29.60;65.10
27164;DHT22;14685;50.618;7.024;2023-06-14T09:50:34;29.70;65.20
27164;DHT22;14685;50.618;7.024;2023-06-14T09:53:11;29.80;62.00
27164;DHT22;14685;50.618;7.024;2023-06-14T09:55:40;30.00;63.90
27164;DHT22;14685;50.618;7.024;2023-06-14T09:58:09;30.00;61.80
27164;DHT22;14685;50.618;7.024;2023-06-14T10:00:36;29.90;64.50
27164;DHT22;14685;50.618;7.024;2023-06-14T10:03:13;30.00;63.30
27164;DHT22;14685;50.618;7.024;2023-06-14T10:05:45;30.10;62.60
27164;DHT22;14685;50.618;7.024;2023-06-14T10:08:15;29.90;62.40
27164;DHT22;14685;50.618;7.024;2023-06-14T10:10:44;29.70;61.50
27164;DHT22;14685;50.618;7.024;2023-06-14T10:13:12;29.80;62.40
27164;DHT22;14685;50.618;7.024;2023-06-14T10:16:17;29.90;65.30
27164;DHT22;14685;50.618;7.024;2023-06-14T10:19:02;29.90;62.70
27164;DHT22;14685;50.618;7.024;2023-06-14T10:21:41;30.00;62.60
27164;DHT22;14685;50.618;7.024;2023-06-14T10:24:13;29.90;60.90
27164;DHT22;14685;50.618;7.024;2023-06-14T10:26:53;30.00;63.70
27164;DHT22;14685;50.618;7.024;2023-06-14T10:29:23;29.80;61.50
27164;DHT22;14685;50.618;7.024;2023-06-14T10:31:56;29.80;61.30
27164;DHT22;14685;50.618;7.024;2023-06-14T10:34:24;29.80;62.20
27164;DHT22;14685;50.618;7.024;2023-06-14T10:37:03;29.80;62.40
27164;DHT22;14685;50.618;7.024;2023-06-14T10:39:37;29.90;60.70
27164;DHT22;14685;50.618;7.024;2023-06-14T10:42:06;29.70;61.10
27164;DHT22;14685;50.618;7.024;2023-06-14T10:47:08;29.60;61.30
27164;DHT22;14685;50.618;7.024;2023-06-14T10:49:45;29.40;60.70
27164;DHT22;14685;50.618;7.024;2023-06-14T10:52:15;29.20;61.40
27164;DHT22;14685;50.618;7.024;2023-06-14T10:57:41;29.30;61.90
27164;DHT22;14685;50.618;7.024;2023-06-14T11:00:13;29.30;62.50
27164;DHT22;14685;50.618;7.024;2023-06-14T11:03:25;29.30;62.90
27164;DHT22;14685;50.618;7.024;2023-06-14T11:11:09;29.30;64.60
27164;DHT22;14685;50.618;7.024;2023-06-14T11:13:40;29.40;63.70
27164;DHT22;14685;50.618;7.024;2023-06-14T11:16:15;29.40;63.60
27164;DHT22;14685;50.618;7.024;2023-06-14T11:18:44;29.40;64.20
27164;DHT22;14685;50.618;7.024;2023-06-14T11:21:15;29.30;64.90
27164;DHT22;14685;50.618;7.024;2023-06-14T11:23:52;29.30;64.50
27164;DHT22;14685;50.618;7.024;2023-06-14T11:26:26;29.30;63.60
27164;DHT22;14685;50.618;7.024;2023-06-14T11:28:58;29.20;64.10
27164;DHT22;14685;50.618;7.024;2023-06-14T11:31:27;29.10;63.70
27164;DHT22;14685;50.618;7.024;2023-06-14T11:33:57;29.10;65.20
27164;DHT22;14685;50.618;7.024;2023-06-14T11:36:29;29.30;66.50
27164;DHT22;14685;50.618;7.024;2023-06-14T11:39:03;29.40;65.60
27164;DHT22;14685;50.618;7.024;2023-06-14T11:41:49;29.40;64.50
27164;DHT22;14685;50.618;7.024;2023-06-14T11:44:16;29.50;64.40
27164;DHT22;14685;50.618;7.024;2023-06-14T11:46:43;29.40;65.10
27164;DHT22;14685;50.618;7.024;2023-06-14T11:49:11;29.40;63.60
27164;DHT22;14685;50.618;7.024;2023-06-14T11:51:39;29.40;65.30
27164;DHT22;14685;50.618;7.024;2023-06-14T11:54:10;29.20;65.10
27164;DHT22;14685;50.618;7.024;2023-06-14T11:56:37;29.10;66.60
27164;DHT22;14685;50.618;7.024;2023-06-14T11:59:04;29.10;66.60
27164;DHT22;14685;50.618;7.024;2023-06-14T12:01:35;29.00;65.80
27164;DHT22;14685;50.618;7.024;2023-06-14T12:04:03;29.00;66.50
27164;DHT22;14685;50.618;7.024;2023-06-14T12:06:32;28.90;65.00
27164;DHT22;14685;50.618;7.024;2023-06-14T12:09:07;29.00;65.80
27164;DHT22;14685;50.618;7.024;2023-06-14T12:11:39;29.00;66.00
27164;DHT22;14685;50.618;7.024;2023-06-14T12:14:08;29.00;67.60
27164;DHT22;14685;50.618;7.024;2023-06-14T12:16:38;28.80;63.80
27164;DHT22;14685;50.618;7.024;2023-06-14T12:19:26;28.80;64.20
27164;DHT22;14685;50.618;7.024;2023-06-14T12:21:53;28.50;63.40
27164;DHT22;14685;50.618;7.024;2023-06-14T12:24:19;28.50;64.30
27164;DHT22;14685;50.618;7.024;2023-06-14T12:26:46;28.40;60.30
27164;DHT22;14685;50.618;7.024;2023-06-14T12:29:13;28.50;62.00
27164;DHT22;14685;50.618;7.024;2023-06-14T12:31:41;28.50;64.10
27164;DHT22;14685;50.618;7.024;2023-06-14T12:34:08;28.40;65.30
27164;DHT22;14685;50.618;7.024;2023-06-14T12:36:35;28.30;64.80
27164;DHT22;14685;50.618;7.024;2023-06-14T12:39:08;28.30;65.80
27164;DHT22;14685;50.618;7.024;2023-06-14T12:41:36;28.20;65.10
27164;DHT22;14685;50.618;7.024;2023-06-14T12:44:10;28.20;66.30
27164;DHT22;14685;50.618;7.024;2023-06-14T12:46:39;28.20;66.00
27164;DHT22;14685;50.618;7.024;2023-06-14T12:49:08;28.20;67.00
27164;DHT22;14685;50.618;7.024;2023-06-14T12:51:35;28.20;67.60
27164;DHT22;14685;50.618;7.024;2023-06-14T12:54:02;28.20;67.40
27164;DHT22;14685;50.618;7.024;2023-06-14T12:56:29;28.20;68.00
27164;DHT22;14685;50.618;7.024;2023-06-14T12:58:59;28.10;66.80
27164;DHT22;14685;50.618;7.024;2023-06-14T13:01:26;28.10;67.40
27164;DHT22;14685;50.618;7.024;2023-06-14T13:03:53;28.00;67.60
27164;DHT22;14685;50.618;7.024;2023-06-14T13:06:21;28.00;68.10
27164;DHT22;14685;50.618;7.024;2023-06-14T13:08:49;27.90;67.70
27164;DHT22;14685;50.618;7.024;2023-06-14T13:11:17;27.90;69.80
27164;DHT22;14685;50.618;7.024;2023-06-14T13:13:45;27.70;69.40
27164;DHT22;14685;50.618;7.024;2023-06-14T13:16:12;27.70;69.20
27164;DHT22;14685;50.618;7.024;2023-06-14T13:18:41;27.80;69.40
27164;DHT22;14685;50.618;7.024;2023-06-14T13:21:08;27.80;69.70
27164;DHT22;14685;50.618;7.024;2023-06-14T13:23:35;27.90;69.80
27164;DHT22;14685;50.618;7.024;2023-06-14T13:26:03;27.80;70.40
27164;DHT22;14685;50.618;7.024;2023-06-14T13:28:30;27.90;69.90
27164;DHT22;14685;50.618;7.024;2023-06-14T13:30:58;27.80;70.40
27164;DHT22;14685;50.618;7.024;2023-06-14T13:33:25;27.90;69.50
27164;DHT22;14685;50.618;7.024;2023-06-14T13:35:54;27.80;69.10
27164;DHT22;14685;50.618;7.024;2023-06-14T13:38:22;27.80;70.20
27164;DHT22;14685;50.618;7.024;2023-06-14T13:40:48;27.70;69.50
27164;DHT22;14685;50.618;7.024;2023-06-14T13:43:15;27.70;70.40
27164;DHT22;14685;50.618;7.024;2023-06-14T13:45:43;27.70;70.60
27164;DHT22;14685;50.618;7.024;2023-06-14T13:48:09;27.70;69.80
27164;DHT22;14685;50.618;7.024;2023-06-14T13:50:37;27.60;69.00
27164;DHT22;14685;50.618;7.024;2023-06-14T13:53:04;27.50;69.40
27164;DHT22;14685;50.618;7.024;2023-06-14T13:55:31;27.50;70.60
27164;DHT22;14685;50.618;7.024;2023-06-14T13:57:58;27.40;70.30
27164;DHT22;14685;50.618;7.024;2023-06-14T14:00:25;27.30;69.60
27164;DHT22;14685;50.618;7.024;2023-06-14T14:02:52;27.20;69.40
27164;DHT22;14685;50.618;7.024;2023-06-14T14:05:21;27.20;70.00
27164;DHT22;14685;50.618;7.024;2023-06-14T14:07:52;27.20;70.50
27164;DHT22;14685;50.618;7.024;2023-06-14T14:10:20;27.10;70.80
27164;DHT22;14685;50.618;7.024;2023-06-14T14:12:47;27.00;70.30
27164;DHT22;14685;50.618;7.024;2023-06-14T14:15:15;27.00;70.90
27164;DHT22;14685;50.618;7.024;2023-06-14T14:17:42;26.90;70.50
27164;DHT22;14685;50.618;7.024;2023-06-14T14:20:10;27.00;71.00
27164;DHT22;14685;50.618;7.024;2023-06-14T14:22:40;27.00;70.50
27164;DHT22;14685;50.618;7.024;2023-06-14T14:25:08;27.00;69.10
27164;DHT22;14685;50.618;7.024;2023-06-14T14:27:36;27.00;69.10
27164;DHT22;14685;50.618;7.024;2023-06-14T14:30:04;27.00;70.10
27164;DHT22;14685;50.618;7.024;2023-06-14T14:32:31;27.00;71.50
27164;DHT22;14685;50.618;7.024;2023-06-14T14:34:58;27.00;70.40
27164;DHT22;14685;50.618;7.024;2023-06-14T14:37:28;27.00;70.20
27164;DHT22;14685;50.618;7.024;2023-06-14T14:39:55;26.90;70.30
27164;DHT22;14685;50.618;7.024;2023-06-14T14:42:22;27.00;70.60
27164;DHT22;14685;50.618;7.024;2023-06-14T14:44:49;27.00;69.90
27164;DHT22;14685;50.618;7.024;2023-06-14T14:47:21;27.00;70.50
27164;DHT22;14685;50.618;7.024;2023-06-14T14:49:48;27.00;71.60
27164;DHT22;14685;50.618;7.024;2023-06-14T14:52:16;26.80;70.80
27164;DHT22;14685;50.618;7.024;2023-06-14T14:54:50;26.80;71.60
27164;DHT22;14685;50.618;7.024;2023-06-14T14:57:18;26.70;71.80
27164;DHT22;14685;50.618;7.024;2023-06-14T14:59:45;26.70;71.30
27164;DHT22;14685;50.618;7.024;2023-06-14T15:02:12;26.60;71.10
27164;DHT22;14685;50.618;7.024;2023-06-14T15:04:39;26.60;71.90
27164;DHT22;14685;50.618;7.024;2023-06-14T15:07:07;26.60;71.90
27164;DHT22;14685;50.618;7.024;2023-06-14T15:09:33;26.70;72.10
27164;DHT22;14685;50.618;7.024;2023-06-14T15:12:02;26.70;72.90
27164;DHT22;14685;50.618;7.024;2023-06-14T15:14:29;26.60;72.60
27164;DHT22;14685;50.618;7.024;2023-06-14T15:16:56;26.60;72.40
27164;DHT22;14685;50.618;7.024;2023-06-14T15:19:27;26.60;72.70
27164;DHT22;14685;50.618;7.024;2023-06-14T15:21:54;26.60;72.00
27164;DHT22;14685;50.618;7.024;2023-06-14T15:24:21;26.60;71.80
27164;DHT22;14685;50.618;7.024;2023-06-14T15:27:08;26.40;71.50
27164;DHT22;14685;50.618;7.024;2023-06-14T15:29:35;26.50;72.60
27164;DHT22;14685;50.618;7.024;2023-06-14T15:32:05;26.50;72.20
27164;DHT22;14685;50.618;7.024;2023-06-14T15:34:34;26.50;72.40
27164;DHT22;14685;50.618;7.024;2023-06-14T15:37:01;26.50;72.20
27164;DHT22;14685;50.618;7.024;2023-06-14T15:39:31;26.40;72.60
27164;DHT22;14685;50.618;7.024;2023-06-14T15:42:00;26.50;72.70
27164;DHT22;14685;50.618;7.024;2023-06-14T15:44:27;26.40;72.10
27164;DHT22;14685;50.618;7.024;2023-06-14T15:46:54;26.50;72.30
27164;DHT22;14685;50.618;7.024;2023-06-14T15:49:21;26.40;72.70
27164;DHT22;14685;50.618;7.024;2023-06-14T15:51:48;26.40;73.00
27164;DHT22;14685;50.618;7.024;2023-06-14T15:54:15;26.40;72.50
27164;DHT22;14685;50.618;7.024;2023-06-14T15:56:42;26.40;72.20
27164;DHT22;14685;50.618;7.024;2023-06-14T15:59:11;26.30;72.60
27164;DHT22;14685;50.618;7.024;2023-06-14T16:01:38;26.30;71.90
27164;DHT22;14685;50.618;7.024;2023-06-14T16:04:10;26.30;72.40
27164;DHT22;14685;50.618;7.024;2023-06-14T16:06:37;26.20;71.40
27164;DHT22;14685;50.618;7.024;2023-06-14T16:09:08;26.20;71.90
27164;DHT22;14685;50.618;7.024;2023-06-14T16:11:35;26.20;71.60
27164;DHT22;14685;50.618;7.024;2023-06-14T16:14:02;26.20;71.70
27164;DHT22;14685;50.618;7.024;2023-06-14T16:16:29;26.20;72.50
27164;DHT22;14685;50.618;7.024;2023-06-14T16:18:56;26.20;72.60
27164;DHT22;14685;50.618;7.024;2023-06-14T16:21:23;26.30;72.00